< < Back
Terminal Aerodrome Forecast


Current Version              Previous Versions:   1  2  3  4  5  6  7  8  9  

Terminal Aerodrome Forecast

563
FTUS42 KILM 291731
TAFILM
TAF
KILM 291731Z 2918/3018 06012KT P6SM SCT030
     FM300000 09003KT P6SM SKC
     FM300900 19003KT 4SM BR OVC004
     FM301400 07006KT P6SM SCT010 BKN025
     FM301500 09006KT P6SM BKN050=



Latest METAR

456
SAUS70 KWBC 301100 RRK
MTRILM
METAR KILM 301053Z AUTO 05006KT 8SM OVC021 16/15 A3007 RMK AO2 SLP183
T01560150


USA.gov is the U.S. government's official web portal to all federal, state and local government web resources and services.